地図

経路データ

SID SEASON NUMBER BASIN SUBBASIN NAME ISO_TIME NATURE LAT LON WMO_WIND WMO_PRES WMO_AGENCY TRACK_TYPE DIST2LAND LANDFALL IFLAG USA_AGENCY USA_ATCF_ID USA_LAT USA_LON USA_RECORD USA_STATUS USA_WIND USA_PRES USA_SSHS USA_R34_NE USA_R34_SE USA_R34_SW USA_R34_NW USA_R50_NE USA_R50_SE USA_R50_SW USA_R50_NW USA_R64_NE USA_R64_SE USA_R64_SW USA_R64_NW USA_POCI USA_ROCI USA_RMW USA_EYE TOKYO_LAT TOKYO_LON TOKYO_GRADE TOKYO_WIND TOKYO_PRES TOKYO_R50_DIR TOKYO_R50_LONG TOKYO_R50_SHORT TOKYO_R30_DIR TOKYO_R30_LONG TOKYO_R30_SHORT TOKYO_LAND CMA_LAT CMA_LON CMA_CAT CMA_WIND CMA_PRES HKO_LAT HKO_LON HKO_CAT HKO_WIND HKO_PRES NEWDELHI_LAT NEWDELHI_LON NEWDELHI_GRADE NEWDELHI_WIND NEWDELHI_PRES NEWDELHI_CI NEWDELHI_DP NEWDELHI_POCI REUNION_LAT REUNION_LON REUNION_TYPE REUNION_WIND REUNION_PRES REUNION_TNUM REUNION_CI REUNION_RMW REUNION_R34_NE REUNION_R34_SE REUNION_R34_SW REUNION_R34_NW REUNION_R50_NE REUNION_R50_SE REUNION_R50_SW REUNION_R50_NW REUNION_R64_NE REUNION_R64_SE REUNION_R64_SW REUNION_R64_NW BOM_LAT BOM_LON BOM_TYPE BOM_WIND BOM_PRES BOM_TNUM BOM_CI BOM_RMW BOM_R34_NE BOM_R34_SE BOM_R34_SW BOM_R34_NW BOM_R50_NE BOM_R50_SE BOM_R50_SW BOM_R50_NW BOM_R64_NE BOM_R64_SE BOM_R64_SW BOM_R64_NW BOM_ROCI BOM_POCI BOM_EYE BOM_POS_METHOD BOM_PRES_METHOD NADI_LAT NADI_LON NADI_CAT NADI_WIND NADI_PRES WELLINGTON_LAT WELLINGTON_LON WELLINGTON_WIND WELLINGTON_PRES DS824_LAT DS824_LON DS824_STAGE DS824_WIND DS824_PRES TD9636_LAT TD9636_LON TD9636_STAGE TD9636_WIND TD9636_PRES TD9635_LAT TD9635_LON TD9635_WIND TD9635_PRES TD9635_ROCI NEUMANN_LAT NEUMANN_LON NEUMANN_CLASS NEUMANN_WIND NEUMANN_PRES MLC_LAT MLC_LON MLC_CLASS MLC_WIND MLC_PRES USA_GUST BOM_GUST BOM_GUST_PER REUNION_GUST REUNION_GUST_PER USA_SEAHGT USA_SEARAD_NE USA_SEARAD_SE USA_SEARAD_SW USA_SEARAD_NW STORM_SPEED STORM_DIR
1978220N13308 1978 60 NA NA NOT_NAMED 1978-08-07 12:00:00 TS 13.0000 -52.5000 20 hurdat_atl main 816 800 O_____________ hurdat_atl AL071978 13.0000 -52.5000 TD 20 -1 20 270
1978220N13308 1978 60 NA NA NOT_NAMED 1978-08-07 15:00:00 TS 13.0008 -53.5000 main 799 752 P_____________ AL071978 13.0008 -53.5000 TD 22 -1 20 270
1978220N13308 1978 60 NA NA NOT_NAMED 1978-08-07 18:00:00 TS 13.0000 -54.5000 25 hurdat_atl main 745 661 O_____________ hurdat_atl AL071978 13.0000 -54.5000 TD 25 -1 20 270
1978220N13308 1978 60 NA NA NOT_NAMED 1978-08-07 21:00:00 TS 12.9996 -55.5000 main 651 563 P_____________ AL071978 12.9996 -55.5000 TD 25 -1 20 270
1978220N13308 1978 60 NA NA NOT_NAMED 1978-08-08 00:00:00 TS 13.0000 -56.5000 25 hurdat_atl main 553 469 O_____________ hurdat_atl AL071978 13.0000 -56.5000 TD 25 -1 20 270
1978220N13308 1978 60 NA NA NOT_NAMED 1978-08-08 03:00:00 TS 12.9996 -57.5000 main 459 382 P_____________ AL071978 12.9996 -57.5000 TD 25 -1 20 270
1978220N13308 1978 60 NA NA NOT_NAMED 1978-08-08 06:00:00 TS 13.0000 -58.5000 25 hurdat_atl main 374 310 O_____________ hurdat_atl AL071978 13.0000 -58.5000 TD 25 -1 20 270
1978220N13308 1978 60 NA CS NOT_NAMED 1978-08-08 09:00:00 TS 12.9996 -59.5000 main 305 265 P_____________ AL071978 12.9996 -59.5000 TD 27 -1 20 270
1978220N13308 1978 60 NA CS NOT_NAMED 1978-08-08 12:00:00 TS 13.0000 -60.5000 30 hurdat_atl main 263 257 O_____________ hurdat_atl AL071978 13.0000 -60.5000 TD 30 -1 20 270
1978220N13308 1978 60 NA CS NOT_NAMED 1978-08-08 15:00:00 TS 12.9996 -61.5000 main 257 257 P_____________ AL071978 12.9996 -61.5000 TD 30 -1 20 270
1978220N13308 1978 60 NA CS NOT_NAMED 1978-08-08 18:00:00 TS 13.0000 -62.5000 30 hurdat_atl main 257 257 O_____________ hurdat_atl AL071978 13.0000 -62.5000 TD 30 -1 20 270
1978220N13308 1978 60 NA CS NOT_NAMED 1978-08-08 21:00:00 TS 12.9998 -63.5150 main 261 261 P_____________ AL071978 12.9998 -63.5150 TD 30 -1 20 270
1978220N13308 1978 60 NA CS NOT_NAMED 1978-08-09 00:00:00 TS 13.0000 -64.5000 30 hurdat_atl main 270 270 O_____________ hurdat_atl AL071978 13.0000 -64.5000 TD 30 -1 19 270
1978220N13308 1978 60 NA CS NOT_NAMED 1978-08-09 03:00:00 TS 12.9996 -65.4225 main 276 268 P_____________ AL071978 12.9996 -65.4225 TD 30 -1 18 270
1978220N13308 1978 60 NA CS NOT_NAMED 1978-08-09 06:00:00 TS 13.0000 -66.3000 30 hurdat_atl main 268 246 O_____________ hurdat_atl AL071978 13.0000 -66.3000 TD 30 -1 17 270
1978220N13308 1978 60 NA CS NOT_NAMED 1978-08-09 09:00:00 TS 12.9994 -67.1350 main 246 204 P_____________ AL071978 12.9994 -67.1350 TD 30 -1 17 270
1978220N13308 1978 60 NA CS NOT_NAMED 1978-08-09 12:00:00 TS 13.0000 -68.0000 30 hurdat_atl main 199 148 O_____________ hurdat_atl AL071978 13.0000 -68.0000 TD 30 -1 18 270
1978220N13308 1978 60 NA CS NOT_NAMED 1978-08-09 15:00:00 TS 12.9999 -68.9775 main 140 100 P_____________ AL071978 12.9999 -68.9775 TD 27 -1 20 270
1978220N13308 1978 60 NA CS NOT_NAMED 1978-08-09 18:00:00 TS 13.0000 -70.0000 25 hurdat_atl main 100 89 O_____________ hurdat_atl AL071978 13.0000 -70.0000 TD 25 -1 20 270
1978220N13308 1978 60 NA CS NOT_NAMED 1978-08-09 21:00:00 TS 13.0071 -70.9999 main 84 67 P_____________ AL071978 13.0071 -70.9999 TD 25 -1 20 270
1978220N13308 1978 60 NA CS NOT_NAMED 1978-08-10 00:00:00 TS 13.0000 -72.0000 25 hurdat_atl main 74 74 O_____________ hurdat_atl AL071978 13.0000 -72.0000 TD 25 -1 20 269
1978220N13308 1978 60 NA CS NOT_NAMED 1978-08-10 03:00:00 TS 12.9571 -73.0001 main 124 124 P_____________ AL071978 12.9571 -73.0001 TD 25 -1 20 267
1978220N13308 1978 60 NA CS NOT_NAMED 1978-08-10 06:00:00 TS 12.9000 -74.0000 25 hurdat_atl main 187 187 O_____________ hurdat_atl AL071978 12.9000 -74.0000 TD 25 -1 20 267
1978220N13308 1978 60 NA CS NOT_NAMED 1978-08-10 09:00:00 TS 12.8500 -75.0374 main 209 202 P_____________ AL071978 12.8500 -75.0374 TD 25 -1 20 267
1978220N13308 1978 60 NA CS NOT_NAMED 1978-08-10 12:00:00 TS 12.8000 -76.0000 25 hurdat_atl main 234 234 O_____________ hurdat_atl AL071978 12.8000 -76.0000 TD 25 -1 17 267
1978220N13308 1978 60 NA CS NOT_NAMED 1978-08-10 15:00:00 TS 12.7569 -76.7873 main 277 275 P_____________ AL071978 12.7569 -76.7873 TD 22 -1 15 266
1978220N13308 1978 60 NA CS NOT_NAMED 1978-08-10 18:00:00 TS 12.7000 -77.5000 20 hurdat_atl main 320 320 O_____________ hurdat_atl AL071978 12.7000 -77.5000 TD 20 -1 14 264
1978220N13308 1978 60 NA CS NOT_NAMED 1978-08-10 21:00:00 TS 12.6072 -78.2350 main 360 336 P_____________ AL071978 12.6072 -78.2350 TD 20 -1 15 262
1978220N13308 1978 60 NA CS NOT_NAMED 1978-08-11 00:00:00 TS 12.5000 -79.0000 20 hurdat_atl main 336 324 O_____________ hurdat_atl AL071978 12.5000 -79.0000 TD 20 -1 16 263
1978220N13308 1978 60 NA CS NOT_NAMED 1978-08-11 03:00:00 TS 12.4073 -79.8274 main 324 304 P_____________ AL071978 12.4073 -79.8274 TD 20 -1 17 263
1978220N13308 1978 60 NA CS NOT_NAMED 1978-08-11 06:00:00 TS 12.3000 -80.7000 20 hurdat_atl main 304 207 O_____________ hurdat_atl AL071978 12.3000 -80.7000 TD 20 -1 18 262
1978220N13308 1978 60 NA CS NOT_NAMED 1978-08-11 09:00:00 TS 12.1500 -81.6151 main 209 117 P_____________ AL071978 12.1500 -81.6151 TD 20 -1 18 260
1978220N13308 1978 60 NA CS NOT_NAMED 1978-08-11 12:00:00 TS 12.0000 -82.5000 20 hurdat_atl main 117 55 O_____________ hurdat_atl AL071978 12.0000 -82.5000 TD 20 -1 17 261
1978220N13308 1978 60 NA CS NOT_NAMED 1978-08-11 15:00:00 TS 11.8877 -83.2825 main 44 0 P_____________ AL071978 11.8877 -83.2825 TD -1 15 262
1978220N13308 1978 60 NA NA NOT_NAMED 1978-08-11 18:00:00 TS 11.8000 -84.0000 hurdat_atl main 0 O_____________ hurdat_atl AL071978 11.8000 -84.0000 TD -1 14 263

IBTrACS Databaseについて

本データベースは、米国NOAAが公開する1842年以降の世界の熱帯低気圧のベストトラックデータアーカイブInternational Best Track Archive for Climate Stewardship (IBTrACS)を、ウェブで閲覧しやすい形式に変換したものです。

最終更新日:2021-11-26